Time;durP1;ratioP1;P1;durP2;ratioP2;P2;SDS_P1;SDS_P2;PMS_P1;PMS_P2;Temp;Humidity;BMP_temperature;BMP_pressure;BME280_temperature;BME280_humidity;BME280_pressure;Samples;Min_cycle;Max_cycle;Signal;HPM_P1;HPM_P2
2022/04/15 00:01:17;;;;;;;38.90;25.80;;;;;;;10.48;58.41;100475.80;88141;1277;98440;-69
2022/04/15 00:03:23;;;;;;;35.90;24.60;;;;;;;10.48;58.53;100484.44;88149;1277;89112;-69
2022/04/15 00:05:40;;;;;;;39.30;25.40;;;;;;;10.49;58.54;100483.23;88163;1276;95537;-68
2022/04/15 00:07:48;;;;;;;37.50;25.10;;;;;;;10.51;58.64;100482.75;88155;1277;78341;-60
2022/04/15 00:09:57;;;;;;;37.50;25.90;;;;;;;10.54;58.59;100483.79;88144;1277;82608;-60
2022/04/15 00:12:10;;;;;;;38.30;25.90;;;;;;;10.56;58.45;100488.46;88162;1277;97915;-69
2022/04/15 00:14:16;;;;;;;41.50;25.20;;;;;;;10.56;58.26;100490.05;88083;1278;88120;-69
2022/04/15 00:16:21;;;;;;;39.30;25.90;;;;;;;10.56;58.29;100498.39;88214;1274;96969;-69
2022/04/15 00:18:27;;;;;;;41.50;25.70;;;;;;;10.55;58.40;100502.08;88193;1274;80024;-70
2022/04/15 00:20:34;;;;;;;39.70;26.30;;;;;;;10.57;58.33;100507.30;88180;1274;81128;-69
2022/04/15 00:22:43;;;;;;;40.70;26.00;;;;;;;10.59;58.34;100501.09;88184;1274;99524;-59
2022/04/15 00:24:51;;;;;;;35.20;25.40;;;;;;;10.60;58.16;100498.38;88092;1277;88283;-60
2022/04/15 00:27:00;;;;;;;35.70;25.90;;;;;;;10.59;58.05;100493.46;88145;1277;95299;-69
2022/04/15 00:29:09;;;;;;;35.90;25.10;;;;;;;10.58;58.07;100498.05;88146;1277;78129;-69
2022/04/15 00:31:14;;;;;;;34.30;24.70;;;;;;;10.57;58.08;100499.90;88142;1277;82613;-70
2022/04/15 00:33:23;;;;;;;35.60;24.30;;;;;;;10.55;58.05;100498.42;88161;1277;99797;-69
2022/04/15 00:35:31;;;;;;;37.40;24.30;;;;;;;10.56;58.06;100501.80;88190;1276;87501;-70
2022/04/15 00:37:37;;;;;;;34.50;24.80;;;;;;;10.58;58.12;100506.60;88131;1276;93869;-69
2022/04/15 00:39:45;;;;;;;39.00;25.20;;;;;;;10.60;58.07;100509.02;88176;1277;78275;-69
2022/04/15 00:41:56;;;;;;;38.90;24.60;;;;;;;10.62;58.11;100512.77;88101;1277;82954;-60
2022/04/15 00:44:02;;;;;;;38.60;24.90;;;;;;;10.64;58.13;100510.69;88058;1277;98668;-61
2022/04/15 00:46:09;;;;;;;38.10;24.70;;;;;;;10.66;58.15;100506.13;88011;1277;88385;-60
2022/04/15 00:48:18;;;;;;;33.40;23.40;;;;;;;10.67;58.22;100506.02;88109;1276;95081;-60
2022/04/15 00:50:30;;;;;;;36.20;24.60;;;;;;;10.68;58.18;100509.70;88067;1277;79649;-60
2022/04/15 00:52:43;;;;;;;34.30;23.10;;;;;;;10.69;58.27;100504.14;88155;1277;80327;-69
2022/04/15 00:54:54;;;;;;;31.40;22.10;;;;;;;10.71;58.36;100507.41;88065;1277;96616;-69
2022/04/15 00:57:02;;;;;;;32.70;22.90;;;;;;;10.70;58.31;100507.85;88090;1277;88408;-60
2022/04/15 00:59:12;;;;;;;35.30;23.30;;;;;;;10.70;58.36;100509.46;88091;1277;94630;-61
2022/04/15 01:01:18;;;;;;;32.40;21.90;;;;;;;10.69;58.46;100506.64;88088;1277;79535;-70
2022/04/15 01:03:23;;;;;;;30.60;23.30;;;;;;;10.69;58.32;100502.14;88120;1277;83561;-71
2022/04/15 01:05:33;;;;;;;29.00;21.10;;;;;;;10.69;58.44;100504.52;88039;1278;97673;-59
2022/04/15 01:07:41;;;;;;;30.00;22.00;;;;;;;10.68;58.62;100505.51;88067;1277;87999;-60
2022/04/15 01:09:51;;;;;;;30.50;22.60;;;;;;;10.68;58.68;100502.59;88098;1277;95594;-61
2022/04/15 01:11:58;;;;;;;31.40;22.20;;;;;;;10.68;58.87;100504.30;88105;1277;78091;-69
2022/04/15 01:14:05;;;;;;;32.30;23.00;;;;;;;10.68;58.97;100506.08;88110;1277;82049;-70
2022/04/15 01:16:16;;;;;;;31.30;23.60;;;;;;;10.68;59.15;100518.52;88077;1277;99466;-69
2022/04/15 01:18:22;;;;;;;32.90;22.10;;;;;;;10.67;59.76;100515.38;88092;1277;89044;-69
2022/04/15 01:20:29;;;;;;;30.40;21.50;;;;;;;10.66;60.14;100511.50;88022;1279;94579;-69
2022/04/15 01:22:41;;;;;;;28.90;21.40;;;;;;;10.68;60.41;100508.27;88117;1277;84340;-60
2022/04/15 01:24:46;;;;;;;29.80;21.30;;;;;;;10.71;60.77;100509.65;88092;1277;80394;-61
2022/04/15 01:26:52;;;;;;;28.70;20.70;;;;;;;10.74;61.09;100511.10;88101;1276;97337;-60
2022/04/15 01:29:03;;;;;;;28.60;21.30;;;;;;;10.76;61.41;100508.36;88141;1276;88203;-60
2022/04/15 01:31:12;;;;;;;29.60;21.30;;;;;;;10.79;61.54;100505.64;88140;1276;93237;-69
2022/04/15 01:33:21;;;;;;;26.80;21.10;;;;;;;10.82;61.58;100503.98;88102;1276;80904;-69
2022/04/15 01:35:27;;;;;;;29.50;21.70;;;;;;;10.85;61.73;100503.48;88127;1276;81670;-69
2022/04/15 01:37:37;;;;;;;29.20;22.00;;;;;;;10.85;61.77;100500.86;88120;1276;99433;-60
2022/04/15 01:39:44;;;;;;;27.50;21.70;;;;;;;10.86;61.85;100498.66;88116;1276;87703;-60
2022/04/15 01:41:49;;;;;;;28.50;22.10;;;;;;;10.85;61.89;100502.52;88131;1276;95493;-60
2022/04/15 01:43:55;;;;;;;29.10;22.30;;;;;;;10.85;62.10;100496.23;88096;1276;80300;-61
2022/04/15 01:46:01;;;;;;;27.90;22.20;;;;;;;10.84;62.09;100497.57;88119;1277;81511;-59
2022/04/15 01:48:08;;;;;;;28.00;21.40;;;;;;;10.81;62.23;100498.73;88071;1277;100338;-59
2022/04/15 01:50:13;;;;;;;26.70;21.00;;;;;;;10.79;62.39;100495.36;88035;1277;89191;-60
2022/04/15 01:52:22;;;;;;;28.70;20.30;;;;;;;10.78;62.43;100498.77;88060;1277;95210;-70
2022/04/15 01:54:31;;;;;;;27.50;20.60;;;;;;;10.77;62.63;100502.41;88050;1277;81444;-69
2022/04/15 01:56:37;;;;;;;28.30;21.30;;;;;;;10.78;62.80;100504.34;88077;1277;81611;-61
2022/04/15 01:58:43;;;;;;;27.30;21.40;;;;;;;10.80;62.86;100505.94;88146;1276;100084;-60
2022/04/15 02:00:49;;;;;;;25.50;19.80;;;;;;;10.80;63.07;100500.63;88200;1276;87263;-59
2022/04/15 02:02:55;;;;;;;26.30;20.20;;;;;;;10.82;63.09;100501.86;88096;1277;95337;-60
2022/04/15 02:05:01;;;;;;;26.20;20.60;;;;;;;10.85;63.22;100501.33;88119;1276;77335;-60
2022/04/15 02:07:10;;;;;;;29.50;20.50;;;;;;;10.88;63.06;100503.23;88130;1276;82636;-68
2022/04/15 02:09:15;;;;;;;26.00;20.20;;;;;;;10.91;63.12;100503.42;88142;1276;98713;-68
2022/04/15 02:11:21;;;;;;;27.30;20.60;;;;;;;10.92;63.19;100501.33;88093;1276;89263;-60
2022/04/15 02:13:29;;;;;;;23.10;19.40;;;;;;;10.91;63.21;100502.30;88098;1276;94243;-60
2022/04/15 02:15:36;;;;;;;25.50;20.80;;;;;;;10.91;63.19;100502.67;88125;1276;78056;-61
2022/04/15 02:17:42;;;;;;;24.20;20.00;;;;;;;10.91;63.20;100502.64;88130;1277;82568;-58
2022/04/15 02:19:47;;;;;;;25.80;20.50;;;;;;;10.90;63.14;100502.39;88129;1276;99454;-59
2022/04/15 02:21:56;;;;;;;25.40;20.10;;;;;;;10.88;63.22;100500.39;88099;1277;88880;-69
2022/04/15 02:24:06;;;;;;;26.70;20.10;;;;;;;10.87;63.28;100500.52;88104;1276;95628;-69
2022/04/15 02:26:12;;;;;;;23.90;19.00;;;;;;;10.84;63.37;100499.02;88134;1276;79453;-69
2022/04/15 02:28:18;;;;;;;25.00;19.50;;;;;;;10.84;63.41;100500.85;88117;1277;81055;-69
2022/04/15 02:30:23;;;;;;;26.10;19.20;;;;;;;10.83;63.59;100501.20;88066;1277;97734;-70
2022/04/15 02:32:31;;;;;;;24.40;18.60;;;;;;;10.82;63.77;100505.95;88062;1277;88014;-61
2022/04/15 02:34:36;;;;;;;22.50;19.20;;;;;;;10.84;63.81;100509.54;88110;1277;94676;-60
2022/04/15 02:36:42;;;;;;;23.50;19.10;;;;;;;10.87;63.88;100515.31;88122;1276;78843;-61
2022/04/15 02:38:51;;;;;;;28.80;20.80;;;;;;;10.89;63.94;100517.46;88112;1276;82554;-59
2022/04/15 02:40:58;;;;;;;24.00;18.70;;;;;;;10.92;63.91;100522.40;88176;1276;98200;-60
2022/04/15 02:43:04;;;;;;;22.30;18.70;;;;;;;10.94;64.06;100526.83;88158;1276;88929;-59
2022/04/15 02:45:11;;;;;;;27.30;19.70;;;;;;;10.93;64.08;100527.38;88145;1276;94679;-59
2022/04/15 02:47:20;;;;;;;23.50;18.70;;;;;;;10.92;64.04;100524.65;88166;1276;79232;-68
2022/04/15 02:49:30;;;;;;;26.20;20.10;;;;;;;10.90;64.28;100523.52;88193;1276;81096;-68
2022/04/15 02:51:37;;;;;;;23.60;18.80;;;;;;;10.88;64.31;100524.17;88192;1276;98134;-59
2022/04/15 02:53:43;;;;;;;22.20;18.70;;;;;;;10.85;64.37;100522.85;88183;1276;87540;-59
2022/04/15 02:55:49;;;;;;;23.60;19.30;;;;;;;10.84;64.52;100517.89;88177;1276;94942;-61
2022/04/15 02:57:58;;;;;;;25.40;19.30;;;;;;;10.81;64.63;100516.49;88105;1276;82041;-59
2022/04/15 03:00:05;;;;;;;23.00;18.60;;;;;;;10.78;64.70;100513.86;88102;1277;83886;-60
2022/04/15 03:02:15;;;;;;;22.70;18.30;;;;;;;10.79;64.71;100510.38;88132;1276;99195;-60
2022/04/15 03:04:20;;;;;;;23.20;19.80;;;;;;;10.79;64.94;100510.80;88142;1276;87720;-60
2022/04/15 03:06:26;;;;;;;24.80;18.80;;;;;;;10.80;65.04;100510.77;88089;1277;95813;-60
2022/04/15 03:08:35;;;;;;;23.00;17.80;;;;;;;10.81;65.06;100511.64;88110;1276;79611;-60
2022/04/15 03:10:41;;;;;;;22.20;17.80;;;;;;;10.83;65.12;100513.10;88116;1277;83258;-63
2022/04/15 03:12:46;;;;;;;21.70;17.70;;;;;;;10.83;65.52;100516.13;88150;1276;99664;-67
2022/04/15 03:14:55;;;;;;;21.50;18.50;;;;;;;10.82;65.73;100517.29;88148;1276;86835;-68
2022/04/15 03:17:02;;;;;;;23.50;19.30;;;;;;;10.78;65.92;100513.66;88122;1276;95018;-67
2022/04/15 03:19:08;;;;;;;22.60;18.60;;;;;;;10.76;65.99;100512.51;88175;1276;80113;-69
2022/04/15 03:21:16;;;;;;;23.50;18.10;;;;;;;10.75;66.30;100511.61;87807;1277;387796;-60
2022/04/15 03:23:22;;;;;;;22.10;18.70;;;;;;;10.72;66.41;100518.57;88156;1276;99406;-60
2022/04/15 03:25:27;;;;;;;25.00;18.50;;;;;;;10.70;66.47;100525.55;88201;1276;88463;-60
2022/04/15 03:27:34;;;;;;;22.20;18.40;;;;;;;10.64;66.65;100536.62;88135;1276;95854;-60
2022/04/15 03:29:40;;;;;;;23.90;17.80;;;;;;;10.62;66.80;100540.48;88170;1276;79045;-59
2022/04/15 03:31:46;;;;;;;29.60;20.00;;;;;;;10.59;66.86;100551.48;88194;1276;80840;-60
2022/04/15 03:33:51;;;;;;;27.40;19.40;;;;;;;10.61;66.92;100548.79;88146;1276;98768;-60
2022/04/15 03:36:00;;;;;;;27.80;19.20;;;;;;;10.63;67.03;100549.49;88158;1276;89003;-60
2022/04/15 03:38:09;;;;;;;21.70;18.10;;;;;;;10.65;67.10;100544.66;88141;1276;93062;-60
2022/04/15 03:40:19;;;;;;;23.90;19.10;;;;;;;10.67;67.12;100534.79;88148;1276;81887;-59
2022/04/15 03:42:28;;;;;;;24.40;18.30;;;;;;;10.69;67.23;100534.44;88150;1276;83127;-60
2022/04/15 03:44:37;;;;;;;24.30;18.70;;;;;;;10.69;67.31;100531.70;88085;1277;98018;-60
2022/04/15 03:46:45;;;;;;;22.40;18.20;;;;;;;10.68;67.31;100534.59;88108;1276;87746;-69
2022/04/15 03:48:54;;;;;;;24.00;18.00;;;;;;;10.67;67.43;100534.48;88086;1276;94714;-67
2022/04/15 03:51:03;;;;;;;22.70;17.60;;;;;;;10.69;67.39;100528.86;88183;1276;78790;-67
2022/04/15 03:53:11;;;;;;;25.30;17.80;;;;;;;10.69;67.42;100527.70;88193;1276;82054;-68
2022/04/15 03:55:20;;;;;;;19.90;15.90;;;;;;;10.67;67.50;100531.92;88095;1276;98697;-69
2022/04/15 03:57:29;;;;;;;22.30;16.20;;;;;;;10.67;67.64;100532.46;88095;1276;87469;-69
2022/04/15 03:59:35;;;;;;;20.10;15.30;;;;;;;10.67;67.57;100524.53;88108;1276;93901;-69
2022/04/15 04:01:40;;;;;;;16.90;15.10;;;;;;;10.67;67.69;100525.15;88074;1276;82372;-60
2022/04/15 04:03:49;;;;;;;20.70;14.70;;;;;;;10.67;67.78;100525.05;88159;1276;84029;-60
2022/04/15 04:05:57;;;;;;;17.80;15.10;;;;;;;10.71;67.73;100519.55;88134;1276;98753;-61
2022/04/15 04:08:07;;;;;;;19.30;15.10;;;;;;;10.73;67.93;100519.30;88147;1276;89365;-59
2022/04/15 04:10:15;;;;;;;20.60;14.40;;;;;;;10.74;68.14;100524.58;88168;1276;94332;-59
2022/04/15 04:12:21;;;;;;;18.10;14.50;;;;;;;10.78;68.05;100525.34;88171;1276;80351;-59
2022/04/15 04:14:29;;;;;;;18.50;14.40;;;;;;;10.80;68.26;100529.40;88155;1276;80495;-60
2022/04/15 04:16:38;;;;;;;18.20;14.90;;;;;;;10.80;68.41;100531.30;88166;1276;98853;-69
2022/04/15 04:18:44;;;;;;;16.30;13.80;;;;;;;10.80;68.44;100537.02;88167;1276;89132;-68
2022/04/15 04:20:53;;;;;;;18.10;14.40;;;;;;;10.77;68.52;100543.79;88070;1277;95304;-67
2022/04/15 04:23:00;;;;;;;20.30;14.70;;;;;;;10.77;68.39;100546.73;88104;1276;78459;-68
2022/04/15 04:25:09;;;;;;;18.00;14.80;;;;;;;10.78;68.63;100546.97;88104;1276;81510;-60
2022/04/15 04:27:14;;;;;;;19.40;15.20;;;;;;;10.76;68.61;100544.02;87972;1279;99561;-60
2022/04/15 04:29:23;;;;;;;18.40;14.80;;;;;;;10.78;68.64;100549.95;88109;1276;89256;-68
2022/04/15 04:31:29;;;;;;;19.30;14.80;;;;;;;10.79;68.69;100552.51;88165;1276;95893;-60
2022/04/15 04:33:37;;;;;;;20.20;15.20;;;;;;;10.82;68.80;100553.88;88157;1276;81671;-60
2022/04/15 04:35:46;;;;;;;18.20;14.30;;;;;;;10.85;68.98;100554.41;88210;1276;80601;-61
2022/04/15 04:37:52;;;;;;;18.60;14.10;;;;;;;10.86;69.18;100549.56;88131;1276;98097;-60
2022/04/15 04:39:57;;;;;;;15.30;13.10;;;;;;;10.90;69.23;100548.61;88170;1276;87883;-60
2022/04/15 04:42:05;;;;;;;18.60;14.20;;;;;;;10.95;69.13;100552.98;88152;1276;95081;-69
2022/04/15 04:44:14;;;;;;;17.60;13.40;;;;;;;10.98;69.25;100553.91;88177;1276;78962;-69
2022/04/15 04:46:23;;;;;;;21.70;14.60;;;;;;;10.98;69.36;100557.25;88207;1275;80531;-69
2022/04/15 04:48:28;;;;;;;15.80;13.70;;;;;;;11.01;69.40;100559.42;88178;1276;98834;-69
2022/04/15 04:50:35;;;;;;;22.10;16.00;;;;;;;11.01;69.32;100566.11;88157;1276;87674;-69
2022/04/15 04:52:41;;;;;;;18.70;14.20;;;;;;;11.01;69.40;100563.20;88170;1276;96108;-69
2022/04/15 04:54:50;;;;;;;19.90;15.40;;;;;;;11.01;69.38;100561.86;88157;1276;80946;-68
2022/04/15 04:57:00;;;;;;;17.90;14.60;;;;;;;11.02;69.35;100563.83;88186;1276;81155;-67
2022/04/15 04:59:08;;;;;;;17.40;13.80;;;;;;;11.04;69.57;100567.89;88171;1276;98685;-68
2022/04/15 05:01:17;;;;;;;19.20;14.50;;;;;;;11.05;69.53;100572.47;88386;1268;88969;-60
2022/04/15 05:03:26;;;;;;;17.80;14.60;;;;;;;11.08;69.57;100572.27;88236;1273;95151;-61
2022/04/15 05:05:35;;;;;;;20.10;16.00;;;;;;;11.13;69.49;100571.88;88196;1273;82133;-60
2022/04/15 05:07:41;;;;;;;18.10;14.30;;;;;;;11.16;69.59;100568.55;88261;1273;82807;-59
2022/04/15 05:09:47;;;;;;;20.10;16.90;;;;;;;11.20;69.66;100568.02;88265;1273;96712;-59
2022/04/15 05:11:56;;;;;;;24.90;19.70;;;;;;;11.23;69.65;100566.96;88257;1273;88021;-60
2022/04/15 05:14:05;;;;;;;27.10;21.60;;;;;;;11.24;69.73;100565.81;88200;1273;95105;-60
2022/04/15 05:16:11;;;;;;;26.50;22.40;;;;;;;11.25;69.83;100567.08;88226;1273;81106;-59
2022/04/15 05:18:19;;;;;;;30.80;25.30;;;;;;;11.26;69.79;100569.12;88205;1273;83032;-60
2022/04/15 05:20:29;;;;;;;30.90;26.70;;;;;;;11.30;69.86;100568.55;88202;1273;98071;-60
2022/04/15 05:22:35;;;;;;;29.80;25.70;;;;;;;11.30;69.88;100573.40;88217;1273;88231;-69
2022/04/15 05:24:42;;;;;;;28.40;23.40;;;;;;;11.32;69.89;100577.44;88209;1273;93431;-70
2022/04/15 05:26:47;;;;;;;26.00;22.40;;;;;;;11.26;69.92;100577.75;88194;1273;82324;-59
2022/04/15 05:28:54;;;;;;;24.60;20.80;;;;;;;11.29;69.95;100579.06;88231;1273;82380;-58
2022/04/15 05:31:00;;;;;;;21.50;18.70;;;;;;;11.33;70.03;100579.65;88224;1273;97372;-67
2022/04/15 05:33:06;;;;;;;20.80;18.60;;;;;;;11.39;70.08;100586.16;88218;1273;86980;-66
2022/04/15 05:35:12;;;;;;;24.60;19.50;;;;;;;11.42;70.15;100590.54;88230;1273;95898;-67
2022/04/15 05:37:18;;;;;;;25.50;20.10;;;;;;;11.48;70.18;100590.23;88241;1273;78986;-60
2022/04/15 05:39:24;;;;;;;26.80;19.10;;;;;;;11.45;70.32;100592.87;88177;1274;80819;-60
2022/04/15 05:41:33;;;;;;;25.10;18.80;;;;;;;11.47;70.26;100593.17;88232;1273;98816;-60
2022/04/15 05:43:39;;;;;;;23.50;17.50;;;;;;;11.50;70.47;100595.21;88263;1273;85816;-60
2022/04/15 05:45:45;;;;;;;22.90;18.20;;;;;;;11.52;70.35;100597.65;88236;1273;95484;-67
2022/04/15 05:47:57;;;;;;;21.70;16.60;;;;;;;11.54;70.47;100597.92;88242;1273;78562;-66
2022/04/15 05:50:03;;;;;;;17.10;14.70;;;;;;;11.51;70.54;100601.17;88220;1273;81241;-67
2022/04/15 05:52:09;;;;;;;22.50;16.10;;;;;;;11.54;70.51;100605.28;88229;1273;98899;-69
2022/04/15 05:54:15;;;;;;;19.80;15.50;;;;;;;11.54;70.65;100603.99;88206;1273;89850;-68
2022/04/15 05:56:21;;;;;;;20.50;15.40;;;;;;;11.49;70.78;100600.85;88246;1273;94434;-59
2022/04/15 05:58:27;;;;;;;18.90;14.30;;;;;;;11.54;70.75;100598.50;88203;1273;81779;-60
2022/04/15 06:00:34;;;;;;;18.50;15.30;;;;;;;11.59;70.78;100601.27;88217;1273;80650;-61
2022/04/15 06:02:41;;;;;;;18.30;15.10;;;;;;;11.61;71.02;100602.29;88224;1273;98641;-61
2022/04/15 06:04:48;;;;;;;17.60;15.40;;;;;;;11.60;71.26;100600.75;88229;1273;88946;-61
2022/04/15 06:06:56;;;;;;;17.80;14.90;;;;;;;11.60;71.39;100602.20;88222;1273;95374;-68
2022/04/15 06:09:06;;;;;;;17.60;14.60;;;;;;;11.64;71.41;100606.16;88199;1273;79702;-68
2022/04/15 06:11:12;;;;;;;19.70;15.80;;;;;;;11.65;71.66;100607.91;88233;1273;81031;-60
2022/04/15 06:13:22;;;;;;;16.40;14.00;;;;;;;11.62;71.79;100606.51;88227;1273;97664;-60
2022/04/15 06:15:31;;;;;;;17.10;14.10;;;;;;;11.64;71.95;100604.52;88221;1273;88923;-60
2022/04/15 06:17:37;;;;;;;17.70;14.50;;;;;;;11.68;72.00;100604.83;88203;1273;95204;-69
2022/04/15 06:19:46;;;;;;;17.40;14.50;;;;;;;11.75;72.00;100609.55;88223;1273;80098;-68
2022/04/15 06:21:52;;;;;;;17.40;14.40;;;;;;;11.77;72.19;100611.05;88244;1273;83547;-59
2022/04/15 06:23:58;;;;;;;15.90;13.90;;;;;;;11.78;72.32;100614.59;88188;1273;98481;-60
2022/04/15 06:26:04;;;;;;;16.30;14.30;;;;;;;11.81;72.62;100622.66;88186;1273;88859;-69
2022/04/15 06:28:10;;;;;;;17.20;14.50;;;;;;;11.82;72.68;100620.42;88163;1274;94643;-63
2022/04/15 06:30:19;;;;;;;16.40;14.00;;;;;;;11.84;72.58;100621.23;88231;1273;81262;-65
2022/04/15 06:32:27;;;;;;;17.30;14.60;;;;;;;11.85;72.61;100623.65;88257;1273;81955;-60
2022/04/15 06:34:33;;;;;;;18.40;15.10;;;;;;;11.82;72.74;100622.00;88206;1273;97733;-61
2022/04/15 06:36:42;;;;;;;18.40;14.20;;;;;;;11.83;72.78;100625.14;88206;1273;89383;-67
2022/04/15 06:38:48;;;;;;;15.90;14.00;;;;;;;11.86;72.92;100628.95;88194;1271;93103;-66
2022/04/15 06:40:54;;;;;;;17.50;14.80;;;;;;;11.91;72.77;100633.38;88219;1273;79775;-61
2022/04/15 06:43:03;;;;;;;16.50;14.00;;;;;;;11.95;72.82;100629.05;88220;1273;82361;-60
2022/04/15 06:45:13;;;;;;;17.40;14.20;;;;;;;11.99;72.77;100633.88;88189;1273;98702;-61
2022/04/15 06:47:19;;;;;;;15.10;13.40;;;;;;;12.04;72.76;100635.09;88224;1273;87133;-71
2022/04/15 06:49:24;;;;;;;19.10;14.10;;;;;;;12.07;72.75;100635.43;88162;1274;93677;-69
2022/04/15 06:51:31;;;;;;;15.20;13.60;;;;;;;12.12;72.77;100636.39;88208;1273;80685;-63
2022/04/15 06:53:36;;;;;;;15.90;14.20;;;;;;;12.18;72.81;100643.41;88263;1273;82213;-62
2022/04/15 06:55:42;;;;;;;18.50;14.40;;;;;;;12.23;72.84;100643.28;88201;1273;97489;-68
2022/04/15 06:57:48;;;;;;;16.60;13.80;;;;;;;12.26;72.79;100647.98;88262;1273;89033;-68
2022/04/15 06:59:54;;;;;;;17.60;15.30;;;;;;;12.25;72.93;100644.98;88228;1271;95798;-68
2022/04/15 07:02:03;;;;;;;17.80;15.00;;;;;;;12.24;73.09;100643.31;88212;1273;82318;-63
2022/04/15 07:04:12;;;;;;;20.90;16.50;;;;;;;12.27;73.09;100653.45;88236;1273;82830;-63
2022/04/15 07:06:18;;;;;;;24.80;18.20;;;;;;;12.30;73.03;100651.74;88218;1273;97344;-67
2022/04/15 07:08:25;;;;;;;25.80;18.80;;;;;;;12.31;73.06;100652.16;88219;1273;87755;-68
2022/04/15 07:10:33;;;;;;;24.40;18.00;;;;;;;12.32;73.07;100656.34;88179;1276;95326;-68
2022/04/15 07:12:43;;;;;;;33.30;22.40;;;;;;;12.32;73.26;100654.59;88186;1273;79614;-62
2022/04/15 07:14:49;;;;;;;28.10;20.10;;;;;;;12.34;73.26;100653.81;88193;1274;82708;-68
2022/04/15 07:16:55;;;;;;;31.60;24.20;;;;;;;12.30;73.47;100657.52;88233;1273;100357;-67
2022/04/15 07:19:04;;;;;;;31.00;24.30;;;;;;;12.26;73.64;100655.06;88199;1273;87778;-60
2022/04/15 07:21:11;;;;;;;31.20;25.40;;;;;;;12.27;73.67;100656.82;88231;1273;93238;-62
2022/04/15 07:23:20;;;;;;;28.10;23.80;;;;;;;12.22;73.80;100652.04;88145;1276;81315;-61
2022/04/15 07:25:29;;;;;;;24.10;19.80;;;;;;;12.21;73.87;100651.80;88246;1273;83139;-63
2022/04/15 07:27:35;;;;;;;19.10;16.50;;;;;;;12.18;74.08;100654.74;88219;1273;98303;-61
2022/04/15 07:29:42;;;;;;;18.40;15.30;;;;;;;12.16;74.10;100653.75;88218;1273;88628;-68
2022/04/15 07:31:48;;;;;;;16.80;15.00;;;;;;;12.22;74.24;100656.08;88217;1273;94400;-61
2022/04/15 07:33:54;;;;;;;15.20;13.60;;;;;;;12.28;74.40;100657.25;88232;1273;80550;-62
2022/04/15 07:36:31;;;;;;;17.70;14.50;;;;;;;12.40;74.50;100657.20;88220;1273;80496;-67
2022/04/15 07:38:29;;;;;;;16.80;15.00;;;;;;;12.56;74.75;100649.05;88207;1273;96918;-68
2022/04/15 07:40:39;;;;;;;19.10;15.50;;;;;;;12.80;75.02;100646.80;88212;1273;87823;-68
2022/04/15 07:42:46;;;;;;;17.20;15.40;;;;;;;13.20;75.24;100647.31;88169;1276;95234;-68
2022/04/15 07:44:52;;;;;;;17.90;15.00;;;;;;;13.49;74.96;100640.27;88207;1273;80077;-68
2022/04/15 07:46:59;;;;;;;16.30;14.40;;;;;;;13.64;74.69;100644.55;88215;1273;82334;-68
2022/04/15 07:49:08;;;;;;;17.10;15.30;;;;;;;13.78;74.38;100639.55;88211;1273;98106;-67
2022/04/15 07:51:14;;;;;;;18.20;15.70;;;;;;;13.95;74.39;100643.43;88234;1273;89124;-60
2022/04/15 07:53:23;;;;;;;17.60;15.80;;;;;;;14.06;74.21;100641.52;88224;1273;93907;-59
2022/04/15 07:55:30;;;;;;;17.40;15.70;;;;;;;14.13;73.86;100643.35;88189;1274;78343;-59
2022/04/15 07:57:36;;;;;;;18.30;16.30;;;;;;;14.07;73.81;100644.64;88276;1273;80563;-60
2022/04/15 07:59:45;;;;;;;17.70;15.90;;;;;;;14.04;73.69;100643.84;88219;1273;97429;-60
2022/04/15 08:01:53;;;;;;;18.70;16.80;;;;;;;13.93;73.52;100649.54;88216;1273;88391;-60
2022/04/15 08:04:00;;;;;;;18.50;16.50;;;;;;;13.92;73.59;100647.91;88195;1274;95198;-61
2022/04/15 08:06:09;;;;;;;16.40;14.70;;;;;;;14.07;73.57;100649.36;88245;1273;79826;-66
2022/04/15 08:08:15;;;;;;;15.50;14.00;;;;;;;14.33;73.68;100654.19;88215;1273;83064;-69
2022/04/15 08:10:23;;;;;;;15.70;13.70;;;;;;;14.67;73.79;100656.34;88217;1273;97829;-66
2022/04/15 08:12:29;;;;;;;16.80;15.10;;;;;;;15.18;73.68;100654.07;88229;1273;89444;-68
2022/04/15 08:14:37;;;;;;;16.50;14.70;;;;;;;15.36;72.89;100652.71;88215;1273;94781;-69
2022/04/15 08:16:42;;;;;;;16.30;14.60;;;;;;;15.52;72.60;100651.48;88231;1273;78781;-68
2022/04/15 08:18:49;;;;;;;17.20;15.50;;;;;;;15.59;72.11;100653.16;88254;1273;82226;-68
2022/04/15 08:20:56;;;;;;;16.80;15.20;;;;;;;15.63;71.82;100656.63;88265;1273;96512;-60
2022/04/15 08:23:03;;;;;;;18.50;16.60;;;;;;;15.58;71.46;100660.18;88246;1273;87551;-60
2022/04/15 08:25:13;;;;;;;17.50;15.50;;;;;;;15.42;71.37;100661.70;88258;1273;95888;-61
2022/04/15 08:27:20;;;;;;;18.30;16.40;;;;;;;15.34;71.03;100664.78;88239;1273;78369;-69
2022/04/15 08:29:27;;;;;;;18.80;16.80;;;;;;;15.30;70.85;100662.36;88190;1276;83198;-69
2022/04/15 08:31:33;;;;;;;19.10;17.00;;;;;;;15.26;70.79;100664.27;88256;1273;98983;-60
2022/04/15 08:33:40;;;;;;;19.90;17.90;;;;;;;15.26;70.68;100662.67;88242;1273;87953;-62
2022/04/15 08:35:47;;;;;;;20.80;18.40;;;;;;;15.26;70.58;100667.56;88233;1273;95711;-62
2022/04/15 08:37:53;;;;;;;20.70;18.60;;;;;;;15.21;70.46;100663.27;88251;1273;77922;-67
2022/04/15 08:39:59;;;;;;;22.30;19.80;;;;;;;15.21;70.36;100668.96;88199;1274;80367;-66
2022/04/15 08:42:08;;;;;;;21.90;19.40;;;;;;;15.20;70.14;100669.30;88423;1265;96824;-66
2022/04/15 08:44:14;;;;;;;22.90;20.50;;;;;;;15.11;69.92;100665.34;88221;1273;88818;-69
2022/04/15 08:46:21;;;;;;;22.50;20.10;;;;;;;14.97;69.83;100674.23;88253;1273;95441;-61
2022/04/15 08:48:28;;;;;;;22.50;19.60;;;;;;;14.70;69.90;100674.29;88193;1273;83852;-60
2022/04/15 08:50:38;;;;;;;26.10;20.90;;;;;;;14.55;69.83;100676.63;88177;1273;81482;-61
2022/04/15 08:52:45;;;;;;;24.40;20.90;;;;;;;14.41;69.91;100677.41;88194;1274;99258;-60
2022/04/15 08:54:52;;;;;;;23.60;20.20;;;;;;;14.36;70.15;100676.45;88249;1273;89227;-59
2022/04/15 08:56:59;;;;;;;23.10;19.70;;;;;;;14.38;70.26;100680.25;88147;1274;95671;-67
2022/04/15 08:59:05;;;;;;;23.00;19.40;;;;;;;14.34;70.30;100678.95;88209;1273;78122;-68
2022/04/15 09:01:10;;;;;;;23.30;19.50;;;;;;;14.40;70.01;100675.23;88222;1274;80451;-61
2022/04/15 09:03:16;;;;;;;22.20;18.80;;;;;;;14.41;70.07;100676.59;88230;1273;97169;-59
2022/04/15 09:05:24;;;;;;;20.60;18.40;;;;;;;14.40;70.00;100681.77;88253;1273;88246;-59
2022/04/15 09:07:35;;;;;;;23.30;19.30;;;;;;;14.32;69.92;100680.30;88217;1273;95335;-59
2022/04/15 09:09:41;;;;;;;23.90;19.50;;;;;;;14.34;69.99;100684.02;88224;1273;78117;-60
2022/04/15 09:11:52;;;;;;;19.70;17.40;;;;;;;14.38;69.92;100683.95;88249;1273;83459;-65
2022/04/15 09:13:57;;;;;;;20.70;17.10;;;;;;;14.38;69.84;100687.66;88217;1273;99478;-65
2022/04/15 09:16:07;;;;;;;19.50;17.40;;;;;;;14.41;70.06;100685.95;88202;1271;87041;-61
2022/04/15 09:18:28;;;;;;;17.50;14.50;;;;;;;14.29;69.83;100682.56;88199;1273;95289;-61
2022/04/15 09:20:35;;;;;;;16.10;13.70;;;;;;;14.08;69.75;100677.54;88220;1273;79390;-60
2022/04/15 09:22:41;;;;;;;17.00;14.00;;;;;;;13.97;69.77;100675.16;88218;1273;82233;-61
2022/04/15 09:24:49;;;;;;;16.30;14.30;;;;;;;14.00;69.62;100676.64;88198;1273;96867;-62
2022/04/15 09:26:54;;;;;;;18.00;14.80;;;;;;;13.95;69.72;100678.71;88214;1273;89815;-60
2022/04/15 09:29:01;;;;;;;16.50;14.70;;;;;;;13.87;69.91;100681.65;88171;1274;95413;-58
2022/04/15 09:31:13;;;;;;;17.90;15.00;;;;;;;13.86;70.08;100680.35;88230;1273;79705;-62
2022/04/15 09:33:23;;;;;;;15.70;14.00;;;;;;;13.89;70.04;100679.11;88244;1273;80553;-62
2022/04/15 09:35:32;;;;;;;16.20;13.80;;;;;;;13.97;70.02;100678.30;88317;1274;98014;-68
2022/04/15 09:37:42;;;;;;;16.00;14.30;;;;;;;14.05;70.06;100676.80;88233;1274;88854;-69
2022/04/15 09:40:09;;;;;;;17.80;14.30;;;;;;;14.15;70.02;100676.96;88264;1273;94734;-67